Main page
METAR-TAF:

METAR-TAF

Airports :

Sion Airport

Sion, Switzerland

latitude: 46-13N, longitude: 007-20E, elevation: 482 m

Current weather observation

The report was made 22 minutes ago, at 09:20 UTC
Wind 10 kt from the West/Southwest
Temperature 15°C
Humidity 67%
Pressure 1003 hPa
Visibility 10 km or more
Scattered clouds at a height of 3000 ft
Broken clouds at a height of 10000 ft

METAR: LSGS 190920Z 25010KT 9999 SCT030 BKN100 15/09 Q1003

Time: 11:42 (09:42 UTC)

Forecast

The report was made 1 hour and 17 minutes ago, at 08:25 UTC
Forecast valid from 19 at 09 UTC to 19 at 18 UTC
Wind 3 kt from variable directions
Visibility 10 km or more
Few clouds at a height of 3000 ft
Scattered clouds at a height of 10000 ft
Temporary
from 19 at 10 UTC to 19 at 14 UTC
rain showers
Becoming
from 19 at 10 UTC to 19 at 12 UTC
Wind 12 kt from the West/Southwest

TAF: LSGS 190825Z 1909/1918 VRB03KT 9999 FEW030 SCT100 TEMPO 1910/1914 SHRA BECMG 1910/1912 24012KT

Weather observations and forecasts of more than 4000 airports (METAR and TAF reports).

The available stations are represented by yellow and red dots on the map.

Hover mouse over dot to see the name of the station.

Then click to see weather observations and forecasts.

To change the map : click on the green buttons with a black cross to zoom in, on the green button with a dash to zoom out, or on the green arrows for adjacent maps.


METAR-TAF: